Time;durP1;ratioP1;P1;durP2;ratioP2;P2;SDS_P1;SDS_P2;PMS_P1;PMS_P2;Temp;Humidity;BMP_temperature;BMP_pressure;BME280_temperature;BME280_humidity;BME280_pressure;Samples;Min_cycle;Max_cycle;Signal;HPM_P1;HPM_P2
2023/03/23 00:00:00;;;;;;;1.70;1.60;;;13.30;99.90;;;;;;5047688;28;20466;-70
2023/03/23 00:02:35;;;;;;;1.83;0.90;;;13.30;99.90;;;;;;5014227;28;20456;-69
2023/03/23 00:05:08;;;;;;;1.30;1.17;;;13.30;99.90;;;;;;5051424;28;20586;-71
2023/03/23 00:07:35;;;;;;;3.03;0.93;;;13.30;99.90;;;;;;5024291;28;20454;-70
2023/03/23 00:10:02;;;;;;;2.10;1.10;;;13.30;99.90;;;;;;5047571;28;20462;-70
2023/03/23 00:12:33;;;;;;;1.60;1.10;;;13.30;99.90;;;;;;5034905;28;20519;-70
2023/03/23 00:15:05;;;;;;;1.77;1.10;;;13.30;99.90;;;;;;5049609;28;20489;-70
2023/03/23 00:17:34;;;;;;;1.60;1.50;;;13.30;99.90;;;;;;5051096;28;20470;-70
2023/03/23 00:20:01;;;;;;;0.90;0.90;;;13.30;99.90;;;;;;5032848;28;20979;-70
2023/03/23 00:22:28;;;;;;;1.57;1.40;;;13.30;99.90;;;;;;5051883;28;20449;-69
2023/03/23 00:24:54;;;;;;;1.03;0.97;;;13.30;99.90;;;;;;5047626;28;20450;-70
2023/03/23 00:27:21;;;;;;;2.40;1.30;;;13.30;99.90;;;;;;5046462;28;20454;-69
2023/03/23 00:29:54;;;;;;;0.80;0.80;;;13.30;99.90;;;;;;5030739;28;20461;-70
2023/03/23 00:32:26;;;;;;;1.10;0.90;;;13.30;99.90;;;;;;5017635;28;20543;-70
2023/03/23 00:34:56;;;;;;;1.63;0.87;;;13.30;99.90;;;;;;5032068;28;20824;-70
2023/03/23 00:37:22;;;;;;;3.10;1.20;;;13.40;99.90;;;;;;5033312;28;20481;-70
2023/03/23 00:39:48;;;;;;;1.00;0.90;;;13.30;99.90;;;;;;5032090;28;20441;-70
2023/03/23 00:42:16;;;;;;;1.67;1.00;;;13.30;99.90;;;;;;5032101;28;20480;-71
2023/03/23 00:44:43;;;;;;;0.93;0.87;;;13.40;99.90;;;;;;5047616;28;20247;-71
2023/03/23 00:47:10;;;;;;;0.87;0.87;;;13.30;99.90;;;;;;5024043;28;20462;-70
2023/03/23 00:49:37;;;;;;;0.83;0.83;;;13.40;99.90;;;;;;5034260;28;20822;-70
2023/03/23 00:52:04;;;;;;;1.33;1.23;;;13.30;99.90;;;;;;5015915;28;20467;-70
2023/03/23 00:54:31;;;;;;;2.70;1.10;;;13.30;99.90;;;;;;5050922;28;20462;-70
2023/03/23 00:56:56;;;;;;;0.87;0.83;;;13.30;99.90;;;;;;5028566;28;20459;-72
2023/03/23 00:59:22;;;;;;;0.83;0.83;;;13.30;99.90;;;;;;5051210;28;20885;-70
2023/03/23 01:01:50;;;;;;;1.73;0.90;;;13.30;99.90;;;;;;5015803;28;20307;-70
2023/03/23 01:04:15;;;;;;;1.73;1.27;;;13.30;99.90;;;;;;5019930;28;20537;-69
2023/03/23 01:06:43;;;;;;;1.10;1.10;;;13.30;99.90;;;;;;5025100;28;20302;-70
2023/03/23 01:09:14;;;;;;;1.70;1.20;;;13.40;99.90;;;;;;5007334;28;20230;-70
2023/03/23 01:11:40;;;;;;;1.03;0.87;;;13.40;99.90;;;;;;5039728;28;20483;-70
2023/03/23 01:14:06;;;;;;;1.10;1.00;;;13.40;99.90;;;;;;5007199;28;20481;-71
2023/03/23 01:16:32;;;;;;;1.13;1.07;;;13.40;99.90;;;;;;5026192;28;20548;-70
2023/03/23 01:18:57;;;;;;;0.90;0.90;;;13.40;99.90;;;;;;5005367;28;20223;-70
2023/03/23 01:21:24;;;;;;;1.00;0.90;;;13.40;99.90;;;;;;5010112;28;20666;-69
2023/03/23 01:23:51;;;;;;;1.50;1.00;;;13.40;99.90;;;;;;5033179;28;20213;-70
2023/03/23 01:26:20;;;;;;;1.10;1.00;;;13.40;99.90;;;;;;5017637;28;20461;-70
2023/03/23 01:28:47;;;;;;;1.27;0.97;;;13.50;99.90;;;;;;5005912;28;20549;-71
2023/03/23 01:31:16;;;;;;;1.37;1.27;;;13.50;99.90;;;;;;5009030;28;20466;-71
2023/03/23 01:33:42;;;;;;;1.73;0.90;;;13.50;99.90;;;;;;5035116;28;20833;-69
2023/03/23 01:36:15;;;;;;;0.80;0.80;;;13.50;99.90;;;;;;5025892;28;20482;-70
2023/03/23 01:38:44;;;;;;;0.80;0.80;;;13.40;99.90;;;;;;5020114;28;20465;-69
2023/03/23 01:41:11;;;;;;;1.17;1.07;;;13.50;99.90;;;;;;5025393;28;20532;-71
2023/03/23 01:43:57;;;;;;;1.37;1.00;;;13.40;99.90;;;;;;5023271;28;20828;-70
2023/03/23 01:46:26;;;;;;;1.20;0.90;;;13.50;99.90;;;;;;5014180;28;20519;-70
2023/03/23 01:48:53;;;;;;;1.73;1.10;;;13.50;99.90;;;;;;5020083;28;20505;-70
2023/03/23 01:51:20;;;;;;;1.20;1.10;;;13.40;99.90;;;;;;5024742;28;20478;-70
2023/03/23 01:53:57;;;;;;;1.27;0.90;;;13.40;99.90;;;;;;5021316;28;20463;-70
2023/03/23 01:56:26;;;;;;;0.90;0.90;;;13.40;99.90;;;;;;5023761;28;20535;-70
2023/03/23 01:58:55;;;;;;;1.63;1.00;;;13.40;99.90;;;;;;5022703;28;20462;-70
2023/03/23 02:01:21;;;;;;;1.33;1.23;;;13.40;99.90;;;;;;5013878;28;20547;-70
2023/03/23 02:03:50;;;;;;;1.37;1.27;;;13.40;99.90;;;;;;5005846;28;20505;-69
2023/03/23 02:06:16;;;;;;;1.00;0.80;;;13.40;99.90;;;;;;5025646;28;20470;-70
2023/03/23 02:08:59;;;;;;;1.10;1.00;;;13.50;99.90;;;;;;5015148;28;20458;-70
2023/03/23 02:11:25;;;;;;;0.77;0.77;;;13.40;99.90;;;;;;5025909;28;20458;-70
2023/03/23 02:13:51;;;;;;;1.43;1.10;;;13.40;99.90;;;;;;5004768;28;20458;-70
2023/03/23 02:16:26;;;;;;;0.97;0.87;;;13.50;99.90;;;;;;5026075;28;20221;-70
2023/03/23 02:19:05;;;;;;;1.07;1.00;;;13.50;99.90;;;;;;5009065;28;20469;-70
2023/03/23 02:21:50;;;;;;;1.83;1.13;;;13.50;99.90;;;;;;5025487;28;20459;-71
2023/03/23 02:24:34;;;;;;;1.00;1.00;;;13.50;99.90;;;;;;5017348;28;20512;-70
2023/03/23 02:27:08;;;;;;;2.10;1.10;;;13.50;99.90;;;;;;5022733;28;20458;-70
2023/03/23 02:29:34;;;;;;;1.20;1.10;;;13.50;99.90;;;;;;5021537;28;20461;-71
2023/03/23 02:32:11;;;;;;;1.17;1.00;;;13.50;99.90;;;;;;5008682;28;20463;-70
2023/03/23 02:34:48;;;;;;;1.53;1.20;;;13.40;99.90;;;;;;5020224;28;20210;-69
2023/03/23 02:37:23;;;;;;;1.40;1.30;;;13.40;99.90;;;;;;5009206;28;20530;-71
2023/03/23 02:39:57;;;;;;;1.10;1.00;;;13.40;99.90;;;;;;5020355;28;20456;-70
2023/03/23 02:42:33;;;;;;;0.93;0.93;;;13.30;99.90;;;;;;5009067;28;20986;-71
2023/03/23 02:45:03;;;;;;;1.43;1.33;;;13.30;99.90;;;;;;5005704;28;20533;-71
2023/03/23 02:47:30;;;;;;;2.53;1.27;;;13.30;99.90;;;;;;5024102;28;20483;-70
2023/03/23 02:49:58;;;;;;;3.03;2.03;;;13.30;99.90;;;;;;5004384;28;20502;-70
2023/03/23 02:52:32;;;;;;;1.37;1.27;;;13.30;99.90;;;;;;5002949;28;20449;-70
2023/03/23 02:54:59;;;;;;;1.40;1.20;;;13.20;99.90;;;;;;5018930;28;20451;-70
2023/03/23 02:57:27;;;;;;;2.00;1.50;;;13.20;99.90;;;;;;5019095;28;20975;-70
2023/03/23 02:59:55;;;;;;;2.93;1.30;;;13.20;99.90;;;;;;5020924;28;20445;-70
2023/03/23 03:02:32;;;;;;;1.30;1.20;;;13.20;99.90;;;;;;5027559;28;20512;-70
2023/03/23 03:05:28;;;;;;;1.50;1.40;;;13.20;99.90;;;;;;5021144;28;20215;-71
2023/03/23 03:08:13;;;;;;;1.27;1.17;;;13.20;99.90;;;;;;5008587;28;20523;-70
2023/03/23 03:10:55;;;;;;;1.40;1.30;;;13.20;99.90;;;;;;5006590;28;20481;-70
2023/03/23 03:13:47;;;;;;;1.37;1.13;;;13.20;99.90;;;;;;5023719;28;20989;-70
2023/03/23 03:16:38;;;;;;;1.30;1.20;;;13.10;99.90;;;;;;5009379;28;20482;-70
2023/03/23 03:19:14;;;;;;;1.30;1.20;;;13.20;99.90;;;;;;5020742;28;20844;-70
2023/03/23 03:21:46;;;;;;;1.37;1.27;;;13.20;99.90;;;;;;5020674;28;20552;-69
2023/03/23 03:24:18;;;;;;;0.90;0.90;;;13.20;99.90;;;;;;5019729;28;20476;-70
2023/03/23 03:26:48;;;;;;;1.07;1.00;;;13.20;99.90;;;;;;5002345;28;20956;-70
2023/03/23 03:29:41;;;;;;;2.57;1.30;;;13.20;99.90;;;;;;5015179;28;20476;-70
2023/03/23 03:32:10;;;;;;;1.20;1.10;;;13.20;99.90;;;;;;5023980;28;20555;-70
2023/03/23 03:34:35;;;;;;;1.60;1.37;;;13.30;99.90;;;;;;5005379;28;20473;-69
2023/03/23 03:37:05;;;;;;;2.33;1.40;;;13.30;99.90;;;;;;5020663;28;20479;-69
2023/03/23 03:39:36;;;;;;;1.50;1.40;;;13.20;99.90;;;;;;5024007;28;20464;-70
2023/03/23 03:42:04;;;;;;;1.10;1.00;;;13.20;99.90;;;;;;4998679;28;20466;-70
2023/03/23 03:44:31;;;;;;;1.50;1.23;;;13.10;99.90;;;;;;5024051;28;20462;-70
2023/03/23 03:46:57;;;;;;;1.63;1.30;;;13.10;99.90;;;;;;5003063;28;20478;-69
2023/03/23 03:49:23;;;;;;;2.57;1.53;;;13.20;99.90;;;;;;5007464;28;20486;-70
2023/03/23 03:51:49;;;;;;;2.13;1.40;;;13.10;99.90;;;;;;5018677;28;20220;-67
2023/03/23 03:54:22;;;;;;;2.63;1.40;;;13.00;99.90;;;;;;5017865;28;20528;-69
2023/03/23 03:56:48;;;;;;;1.70;1.23;;;13.00;99.90;;;;;;5003456;28;20478;-69
2023/03/23 03:59:40;;;;;;;2.10;1.40;;;13.00;99.90;;;;;;4985509;28;20216;-68
2023/03/23 04:02:41;;;;;;;2.50;1.30;;;12.90;99.90;;;;;;5021511;28;20961;-70
2023/03/23 04:05:08;;;;;;;1.53;1.37;;;13.00;99.90;;;;;;5023374;28;20474;-70
2023/03/23 04:07:33;;;;;;;1.53;1.27;;;13.00;99.90;;;;;;5021453;28;20462;-70
2023/03/23 04:09:59;;;;;;;1.90;1.37;;;12.90;99.90;;;;;;5018298;28;20474;-70
2023/03/23 04:12:25;;;;;;;4.47;1.67;;;12.90;99.90;;;;;;5023899;28;20772;-70
2023/03/23 04:14:57;;;;;;;2.33;1.60;;;12.90;99.90;;;;;;5017093;28;20521;-69
2023/03/23 04:17:31;;;;;;;1.50;1.40;;;12.80;99.90;;;;;;5008127;28;20455;-70
2023/03/23 04:19:57;;;;;;;1.43;1.20;;;12.90;99.90;;;;;;5002411;28;20451;-69
2023/03/23 04:22:29;;;;;;;1.20;1.20;;;12.80;99.90;;;;;;5023860;28;20812;-70
2023/03/23 04:24:58;;;;;;;4.10;1.73;;;12.90;99.90;;;;;;5002560;28;20460;-70
2023/03/23 04:27:27;;;;;;;5.27;1.60;;;12.90;99.90;;;;;;5021826;28;20466;-69
2023/03/23 04:29:58;;;;;;;3.10;1.27;;;12.90;99.90;;;;;;5010070;28;20523;-70
2023/03/23 04:32:41;;;;;;;1.30;1.20;;;12.90;99.90;;;;;;5035546;28;20527;-70
2023/03/23 04:35:13;;;;;;;3.73;1.30;;;12.90;99.90;;;;;;5005448;28;20524;-69
2023/03/23 04:37:45;;;;;;;1.73;1.50;;;12.80;99.90;;;;;;5019180;28;20834;-68
2023/03/23 04:40:15;;;;;;;1.57;1.47;;;12.80;99.90;;;;;;5016212;28;20485;-68
2023/03/23 04:42:47;;;;;;;1.90;1.60;;;12.80;99.90;;;;;;5003577;28;20458;-70
2023/03/23 04:45:28;;;;;;;1.93;1.70;;;12.80;99.90;;;;;;5010240;28;20473;-70
2023/03/23 04:47:57;;;;;;;1.50;1.40;;;12.80;99.90;;;;;;5016813;28;22375;-70
2023/03/23 04:50:30;;;;;;;1.40;1.27;;;12.90;99.90;;;;;;5026734;28;20514;-70
2023/03/23 04:53:05;;;;;;;2.93;1.97;;;12.80;99.90;;;;;;5005144;28;20476;-69
2023/03/23 04:55:37;;;;;;;1.93;1.73;;;12.80;99.90;;;;;;5007288;28;20645;-70
2023/03/23 04:58:07;;;;;;;1.80;1.57;;;12.80;99.90;;;;;;5010486;28;20450;-70
2023/03/23 05:00:36;;;;;;;1.40;1.27;;;12.80;99.90;;;;;;5026615;28;20621;-70
2023/03/23 05:03:03;;;;;;;1.97;1.50;;;12.80;99.90;;;;;;5025650;28;20485;-70
2023/03/23 05:05:31;;;;;;;2.07;1.50;;;12.70;99.90;;;;;;5026919;28;20472;-69
2023/03/23 05:08:01;;;;;;;1.70;1.60;;;12.70;99.90;;;;;;5024633;28;20561;-70
2023/03/23 05:10:30;;;;;;;2.00;1.63;;;12.70;99.90;;;;;;5014954;28;20473;-70
2023/03/23 05:13:03;;;;;;;4.20;2.33;;;12.70;99.90;;;;;;5009085;28;20477;-70
2023/03/23 05:15:28;;;;;;;1.57;1.47;;;12.80;99.90;;;;;;5012629;28;20470;-69
2023/03/23 05:17:56;;;;;;;1.93;1.73;;;12.70;99.90;;;;;;5019557;28;20223;-70
2023/03/23 05:20:24;;;;;;;3.10;1.93;;;12.70;99.90;;;;;;5025777;28;20490;-70
2023/03/23 05:22:53;;;;;;;1.93;1.67;;;12.70;99.90;;;;;;5006301;28;20466;-69
2023/03/23 05:25:24;;;;;;;1.53;1.43;;;12.70;99.90;;;;;;5006632;28;20549;-69
2023/03/23 05:27:59;;;;;;;1.87;1.40;;;12.70;99.90;;;;;;5021659;28;20515;-69
2023/03/23 05:30:55;;;;;;;3.23;1.70;;;12.70;99.90;;;;;;5015127;28;20494;-70
2023/03/23 05:33:23;;;;;;;1.50;1.40;;;12.70;99.90;;;;;;5005642;28;20467;-69
2023/03/23 05:35:53;;;;;;;2.23;1.50;;;12.70;99.90;;;;;;5018981;28;20486;-71
2023/03/23 05:38:25;;;;;;;1.63;1.53;;;12.60;99.90;;;;;;5009082;28;20465;-70
2023/03/23 05:40:52;;;;;;;1.60;1.50;;;12.60;99.90;;;;;;5003927;28;20545;-69
2023/03/23 05:43:25;;;;;;;2.50;1.73;;;12.70;99.90;;;;;;5024365;28;20465;-69
2023/03/23 05:46:17;;;;;;;1.53;1.40;;;12.60;99.90;;;;;;5014746;28;20500;-69
2023/03/23 05:48:44;;;;;;;1.20;1.10;;;12.70;99.90;;;;;;5011587;28;20458;-69
2023/03/23 05:51:14;;;;;;;1.50;1.30;;;12.60;99.90;;;;;;5008977;28;20466;-70
2023/03/23 05:53:42;;;;;;;1.60;1.50;;;12.70;99.90;;;;;;5001802;28;20554;-69
2023/03/23 05:56:10;;;;;;;2.53;1.60;;;12.60;99.90;;;;;;5023932;28;20489;-70
2023/03/23 05:58:49;;;;;;;1.93;1.73;;;12.60;99.90;;;;;;5005140;28;20473;-70
2023/03/23 06:01:16;;;;;;;1.70;1.60;;;12.60;99.90;;;;;;5022614;28;20496;-69
2023/03/23 06:03:42;;;;;;;2.40;1.53;;;12.60;99.90;;;;;;5003388;28;20217;-70
2023/03/23 06:06:18;;;;;;;2.37;1.67;;;12.60;99.90;;;;;;5018358;28;20465;-69
2023/03/23 06:09:03;;;;;;;1.90;1.50;;;12.60;99.90;;;;;;5006159;28;20466;-67
2023/03/23 06:11:42;;;;;;;1.90;1.60;;;12.60;99.90;;;;;;5003233;28;20458;-69
2023/03/23 06:14:26;;;;;;;2.70;2.20;;;12.70;99.90;;;;;;5011420;28;20875;-69
2023/03/23 06:16:52;;;;;;;1.90;1.57;;;12.60;99.90;;;;;;5020553;28;20481;-70
2023/03/23 06:19:18;;;;;;;3.40;1.40;;;12.60;99.90;;;;;;5007218;28;20275;-71
2023/03/23 06:21:55;;;;;;;2.80;1.53;;;12.60;99.90;;;;;;5018933;28;20246;-69
2023/03/23 06:24:29;;;;;;;2.00;1.80;;;12.60;99.90;;;;;;5020326;28;20453;-69
2023/03/23 06:26:55;;;;;;;1.73;1.63;;;12.60;99.90;;;;;;5013428;28;20868;-69
2023/03/23 06:29:22;;;;;;;1.77;1.60;;;12.70;99.90;;;;;;5003185;28;20251;-69
2023/03/23 06:31:56;;;;;;;3.40;2.07;;;12.70;99.90;;;;;;5035945;28;20449;-69
2023/03/23 06:34:24;;;;;;;3.47;1.80;;;12.70;99.90;;;;;;5019809;28;20464;-70
2023/03/23 06:37:09;;;;;;;2.90;2.10;;;12.60;99.90;;;;;;5024787;28;20563;-69
2023/03/23 06:39:48;;;;;;;4.17;2.50;;;12.70;99.90;;;;;;5004948;28;20462;-69
2023/03/23 06:42:23;;;;;;;2.33;2.13;;;12.70;99.90;;;;;;5024371;28;20468;-69
2023/03/23 06:45:00;;;;;;;2.93;2.63;;;12.70;99.90;;;;;;5003074;28;20458;-68
2023/03/23 06:47:32;;;;;;;3.00;2.07;;;12.70;99.90;;;;;;5004160;28;20491;-70
2023/03/23 06:49:58;;;;;;;2.60;1.90;;;12.80;99.90;;;;;;5017359;28;20457;-69
2023/03/23 06:52:26;;;;;;;4.10;2.07;;;12.80;99.90;;;;;;5019800;28;20537;-70
2023/03/23 06:54:53;;;;;;;1.70;1.60;;;12.90;99.90;;;;;;5020753;28;20468;-69
2023/03/23 06:57:20;;;;;;;2.00;1.77;;;12.90;99.90;;;;;;5021477;28;20876;-69
2023/03/23 06:59:47;;;;;;;3.30;2.10;;;12.90;99.90;;;;;;5003942;28;20475;-70
2023/03/23 07:02:14;;;;;;;1.70;1.53;;;12.90;99.90;;;;;;5025962;28;20486;-70
2023/03/23 07:04:41;;;;;;;2.60;1.80;;;12.90;99.90;;;;;;5003521;28;20218;-70
2023/03/23 07:07:18;;;;;;;2.27;2.07;;;13.00;99.90;;;;;;5014399;28;20467;-71
2023/03/23 07:09:57;;;;;;;2.57;1.93;;;12.90;99.90;;;;;;5019198;28;20461;-70
2023/03/23 07:12:24;;;;;;;1.80;1.60;;;12.90;99.90;;;;;;5022951;28;20468;-68
2023/03/23 07:14:50;;;;;;;2.17;1.97;;;12.90;99.90;;;;;;5000102;28;20496;-69
2023/03/23 07:17:16;;;;;;;2.07;1.80;;;13.00;99.90;;;;;;5003362;28;20486;-71
2023/03/23 07:19:58;;;;;;;2.07;1.87;;;13.00;99.90;;;;;;5025954;28;20304;-69
2023/03/23 07:22:24;;;;;;;4.23;2.03;;;13.00;99.90;;;;;;5007075;28;20470;-70
2023/03/23 07:24:58;;;;;;;3.00;1.80;;;13.00;99.90;;;;;;5002823;28;20462;-69
2023/03/23 07:27:30;;;;;;;2.90;1.90;;;13.00;99.90;;;;;;5021469;28;20462;-70
2023/03/23 07:29:58;;;;;;;2.83;2.27;;;13.00;99.90;;;;;;5019492;28;20847;-69
2023/03/23 07:32:25;;;;;;;2.37;2.17;;;13.00;99.90;;;;;;5021770;28;20466;-69
2023/03/23 07:34:52;;;;;;;2.00;1.80;;;13.00;99.90;;;;;;5003543;28;20454;-70
2023/03/23 07:37:32;;;;;;;2.60;2.40;;;13.00;99.90;;;;;;5020628;28;20472;-71
2023/03/23 07:39:58;;;;;;;2.30;2.03;;;13.00;99.90;;;;;;4999538;28;20453;-69
2023/03/23 07:42:24;;;;;;;1.97;1.83;;;13.00;99.90;;;;;;5002062;28;20455;-71
2023/03/23 07:44:57;;;;;;;2.80;2.07;;;13.00;99.90;;;;;;5004168;28;20214;-70
2023/03/23 07:47:23;;;;;;;2.63;2.03;;;13.00;99.90;;;;;;5023519;28;20461;-70
2023/03/23 07:49:48;;;;;;;2.20;1.80;;;13.00;99.90;;;;;;5019544;28;20206;-68
2023/03/23 07:52:26;;;;;;;1.50;1.40;;;13.10;99.90;;;;;;5002686;28;20309;-70
2023/03/23 07:54:52;;;;;;;2.03;1.80;;;13.00;99.90;;;;;;4997578;28;20884;-70
2023/03/23 07:57:41;;;;;;;2.10;1.90;;;13.00;99.90;;;;;;5009708;28;20261;-69
2023/03/23 08:00:18;;;;;;;1.60;1.50;;;13.00;99.90;;;;;;5020515;28;20489;-70
2023/03/23 08:02:46;;;;;;;1.90;1.80;;;12.90;99.90;;;;;;5014961;28;20240;-70
2023/03/23 08:05:27;;;;;;;1.63;1.37;;;13.00;99.90;;;;;;5002952;28;20462;-69
2023/03/23 08:08:13;;;;;;;1.67;1.57;;;13.00;99.90;;;;;;5007953;28;21045;-70
2023/03/23 08:11:08;;;;;;;3.93;1.90;;;13.10;99.90;;;;;;5031399;28;20473;-70
2023/03/23 08:14:12;;;;;;;1.70;1.60;;;13.10;99.90;;;;;;5017845;28;20473;-70
2023/03/23 08:16:55;;;;;;;6.73;1.73;;;13.00;99.90;;;;;;5013785;28;20471;-68
2023/03/23 08:19:36;;;;;;;2.47;1.80;;;13.00;99.90;;;;;;5006943;28;20464;-71
2023/03/23 08:22:20;;;;;;;2.37;1.90;;;13.00;99.90;;;;;;4997265;28;20540;-70
2023/03/23 08:25:14;;;;;;;3.07;1.90;;;13.10;99.90;;;;;;5031243;28;20472;-70
2023/03/23 08:28:03;;;;;;;1.93;1.83;;;13.10;99.90;;;;;;5037956;28;20473;-70
2023/03/23 08:30:39;;;;;;;3.23;1.50;;;13.20;99.90;;;;;;5004675;28;20462;-69
2023/03/23 08:33:18;;;;;;;2.53;2.00;;;13.10;99.90;;;;;;5011713;28;20450;-70
2023/03/23 08:36:13;;;;;;;5.93;2.03;;;13.10;99.90;;;;;;5004872;28;20515;-70
2023/03/23 08:38:58;;;;;;;2.90;1.67;;;13.20;99.90;;;;;;5030654;28;21038;-69
2023/03/23 08:41:35;;;;;;;2.07;1.87;;;13.20;99.90;;;;;;5010972;28;20485;-70
2023/03/23 08:44:24;;;;;;;2.53;1.90;;;13.20;99.90;;;;;;5002700;28;20849;-71
2023/03/23 08:46:56;;;;;;;2.10;1.70;;;13.30;99.90;;;;;;5039838;28;20611;-71
2023/03/23 08:49:52;;;;;;;1.50;1.40;;;13.30;99.90;;;;;;5022900;28;20521;-68
2023/03/23 08:52:45;;;;;;;3.90;1.87;;;13.30;99.90;;;;;;5016861;28;20997;-70
2023/03/23 08:55:30;;;;;;;2.20;1.67;;;13.40;99.90;;;;;;5041204;28;20489;-70
2023/03/23 08:58:29;;;;;;;2.67;1.63;;;13.40;99.90;;;;;;4995760;28;20457;-70
2023/03/23 09:01:21;;;;;;;1.60;1.50;;;13.50;99.90;;;;;;5007551;28;20470;-70
2023/03/23 09:03:56;;;;;;;1.47;1.37;;;13.50;99.90;;;;;;5034204;28;20506;-70
2023/03/23 09:06:47;;;;;;;1.50;1.40;;;13.60;99.90;;;;;;4988748;28;20484;-69
2023/03/23 09:09:13;;;;;;;1.13;1.03;;;13.70;99.90;;;;;;5021116;28;20470;-70
2023/03/23 09:11:39;;;;;;;1.37;1.27;;;13.70;99.90;;;;;;4998657;28;20247;-70
2023/03/23 09:14:07;;;;;;;1.40;1.07;;;13.70;99.90;;;;;;5035901;28;20232;-70
2023/03/23 09:16:33;;;;;;;1.50;1.40;;;13.80;99.90;;;;;;5017116;28;20533;-70
2023/03/23 09:19:00;;;;;;;1.17;1.07;;;13.90;99.90;;;;;;5026329;28;20516;-68
2023/03/23 09:21:28;;;;;;;1.43;1.33;;;14.00;99.90;;;;;;5008967;28;20463;-70
2023/03/23 09:23:58;;;;;;;1.80;1.20;;;14.00;99.90;;;;;;5026060;28;20462;-70
2023/03/23 09:26:25;;;;;;;1.23;1.23;;;14.00;99.90;;;;;;5015891;28;20493;-70
2023/03/23 09:28:51;;;;;;;1.03;0.93;;;14.10;99.90;;;;;;5020688;28;20581;-68
2023/03/23 09:31:20;;;;;;;1.10;1.10;;;14.10;99.90;;;;;;5020013;28;20562;-69
2023/03/23 09:33:46;;;;;;;1.33;1.10;;;14.20;99.90;;;;;;5011235;28;20467;-71
2023/03/23 09:36:14;;;;;;;1.60;1.50;;;14.20;99.90;;;;;;5007991;28;21042;-68
2023/03/23 09:38:41;;;;;;;1.53;1.10;;;14.20;99.90;;;;;;5001174;28;20473;-68
2023/03/23 09:41:54;;;;;;;3.23;1.40;;;14.20;99.90;;;;;;5033850;28;20466;-70
2023/03/23 09:44:35;;;;;;;2.70;1.43;;;14.10;99.90;;;;;;4977576;28;20560;-71
2023/03/23 09:47:28;;;;;;;1.50;1.40;;;14.10;99.90;;;;;;5020564;28;20833;-70
2023/03/23 09:49:59;;;;;;;1.60;1.50;;;14.10;99.90;;;;;;5040009;28;20502;-70
2023/03/23 09:52:44;;;;;;;4.10;1.53;;;14.00;99.90;;;;;;5008793;28;20835;-70
2023/03/23 09:55:16;;;;;;;2.50;1.80;;;14.00;99.90;;;;;;5054286;28;20473;-70
2023/03/23 09:58:16;;;;;;;1.50;1.40;;;14.00;99.90;;;;;;5047559;28;20556;-70
2023/03/23 10:01:04;;;;;;;2.90;1.53;;;14.00;99.90;;;;;;5034639;28;20576;-70
2023/03/23 10:03:42;;;;;;;1.40;1.30;;;14.00;99.90;;;;;;5025843;28;20459;-70
2023/03/23 10:06:17;;;;;;;2.50;1.70;;;13.90;99.90;;;;;;5020302;28;20450;-70
2023/03/23 10:09:00;;;;;;;1.20;1.10;;;13.90;99.90;;;;;;5020045;28;20458;-70
2023/03/23 10:11:41;;;;;;;1.70;1.27;;;13.90;99.90;;;;;;4996027;28;20459;-70
2023/03/23 10:14:17;;;;;;;1.00;1.00;;;13.90;99.90;;;;;;5022259;28;20470;-70
2023/03/23 10:17:11;;;;;;;2.00;1.50;;;13.90;99.90;;;;;;5035621;28;20943;-71
2023/03/23 10:19:51;;;;;;;1.93;1.40;;;13.90;99.90;;;;;;5017737;28;20470;-70
2023/03/23 10:22:32;;;;;;;1.40;1.30;;;14.00;99.90;;;;;;5035629;28;20447;-70
2023/03/23 10:25:21;;;;;;;2.20;1.20;;;13.90;99.90;;;;;;5038872;28;20519;-70
2023/03/23 10:28:05;;;;;;;1.30;1.20;;;13.90;99.90;;;;;;5015866;28;20459;-68
2023/03/23 10:30:41;;;;;;;1.73;1.47;;;13.80;99.90;;;;;;5013195;28;20471;-70
2023/03/23 10:33:24;;;;;;;1.87;1.57;;;13.80;99.90;;;;;;5040666;28;20491;-69
2023/03/23 10:36:05;;;;;;;1.60;1.50;;;13.70;99.90;;;;;;5030472;28;20475;-69
2023/03/23 10:38:53;;;;;;;3.10;1.90;;;13.70;99.90;;;;;;5020802;28;20469;-70
2023/03/23 10:41:20;;;;;;;2.00;1.70;;;13.70;99.90;;;;;;5054721;28;20523;-71
2023/03/23 10:43:50;;;;;;;1.40;1.20;;;13.80;99.90;;;;;;5004562;28;20458;-70
2023/03/23 10:46:49;;;;;;;2.10;1.90;;;13.90;99.90;;;;;;5024614;28;21000;-70
2023/03/23 10:49:41;;;;;;;1.83;1.30;;;13.90;99.90;;;;;;5028416;28;20548;-71
2023/03/23 10:52:26;;;;;;;1.57;1.30;;;14.00;99.90;;;;;;5017497;28;20463;-70
2023/03/23 10:55:10;;;;;;;1.53;1.43;;;14.10;99.90;;;;;;5030778;28;20470;-68
2023/03/23 10:57:42;;;;;;;7.60;1.10;;;14.10;99.90;;;;;;5004362;28;20470;-71
2023/03/23 11:00:14;;;;;;;1.43;1.27;;;14.10;99.90;;;;;;5028187;28;20463;-70
2023/03/23 11:02:47;;;;;;;7.10;1.33;;;14.20;99.90;;;;;;5010182;28;20454;-69
2023/03/23 11:05:24;;;;;;;1.33;1.23;;;14.20;99.90;;;;;;5011352;28;21003;-71
2023/03/23 11:07:55;;;;;;;0.80;0.80;;;14.30;99.90;;;;;;5014062;28;20542;-69
2023/03/23 11:10:26;;;;;;;1.17;1.07;;;14.20;99.90;;;;;;5008526;28;20452;-70
2023/03/23 11:12:57;;;;;;;1.27;1.17;;;14.20;99.90;;;;;;5029164;28;20979;-70
2023/03/23 11:15:28;;;;;;;1.00;1.00;;;14.20;99.90;;;;;;5024035;28;20460;-70
2023/03/23 11:18:07;;;;;;;1.00;1.00;;;14.20;99.90;;;;;;5009231;28;20465;-70
2023/03/23 11:20:39;;;;;;;1.20;1.10;;;14.20;99.90;;;;;;5027912;28;20468;-71
2023/03/23 11:23:28;;;;;;;0.90;0.90;;;14.20;99.90;;;;;;5022631;28;20656;-71
2023/03/23 11:26:20;;;;;;;1.27;1.17;;;14.10;99.90;;;;;;5030147;28;20467;-69
2023/03/23 11:28:58;;;;;;;1.40;1.30;;;14.10;99.90;;;;;;5034961;28;20462;-70
2023/03/23 11:31:52;;;;;;;1.20;1.10;;;14.20;99.90;;;;;;5017365;28;20465;-70
2023/03/23 11:34:17;;;;;;;1.43;1.33;;;14.20;99.90;;;;;;5033250;28;20563;-71
2023/03/23 11:36:53;;;;;;;1.67;1.37;;;14.20;99.90;;;;;;5036696;28;20561;-70
2023/03/23 11:39:27;;;;;;;1.30;1.20;;;14.20;99.90;;;;;;5018585;28;20218;-70
2023/03/23 11:41:54;;;;;;;1.60;1.50;;;14.30;99.90;;;;;;5015631;28;20468;-67
2023/03/23 11:44:23;;;;;;;1.57;1.30;;;14.40;99.90;;;;;;5011325;28;20465;-71
2023/03/23 11:47:15;;;;;;;1.40;1.20;;;14.40;99.90;;;;;;5039897;28;20994;-69
2023/03/23 11:49:58;;;;;;;1.20;1.13;;;14.40;99.90;;;;;;5035855;28;20458;-69
2023/03/23 11:52:27;;;;;;;1.80;1.17;;;14.50;99.90;;;;;;5020703;28;20553;-71
2023/03/23 11:55:02;;;;;;;1.10;1.10;;;14.50;99.90;;;;;;5015859;28;20575;-70
2023/03/23 11:57:30;;;;;;;1.30;1.17;;;14.50;99.90;;;;;;5022408;28;20497;-71
2023/03/23 12:00:00;;;;;;;2.47;1.20;;;14.50;99.90;;;;;;5021037;28;22574;-70
2023/03/23 12:02:57;;;;;;;1.00;0.90;;;14.50;99.90;;;;;;5041961;28;20466;-70
2023/03/23 12:06:07;;;;;;;1.40;1.30;;;14.50;99.90;;;;;;5036286;28;20475;-70
2023/03/23 12:08:41;;;;;;;1.53;1.10;;;14.50;99.90;;;;;;5020397;28;20466;-71
2023/03/23 12:11:19;;;;;;;1.30;1.20;;;14.50;99.90;;;;;;5034933;28;20967;-70
2023/03/23 12:14:07;;;;;;;1.10;1.10;;;14.50;99.90;;;;;;5015085;28;20566;-71
2023/03/23 12:16:55;;;;;;;1.20;1.10;;;14.40;99.90;;;;;;5010184;28;20475;-70
2023/03/23 12:19:32;;;;;;;1.30;1.20;;;14.40;99.90;;;;;;5009845;28;20475;-70
2023/03/23 12:22:02;;;;;;;0.90;0.90;;;14.40;99.90;;;;;;4993640;28;21004;-69
2023/03/23 12:24:50;;;;;;;0.70;0.70;;;14.40;99.90;;;;;;5004000;28;20514;-70
2023/03/23 12:27:24;;;;;;;1.10;1.00;;;14.40;99.90;;;;;;5023373;28;20844;-70
2023/03/23 12:30:09;;;;;;;1.07;1.00;;;14.50;99.90;;;;;;5021170;28;20457;-68
2023/03/23 12:33:11;;;;;;;1.10;1.00;;;14.50;99.90;;;;;;5026576;28;20484;-71
2023/03/23 12:35:46;;;;;;;1.40;1.30;;;14.50;99.90;;;;;;5030822;28;20482;-70
2023/03/23 12:38:35;;;;;;;1.20;1.20;;;14.60;99.90;;;;;;5030216;28;20995;-70
2023/03/23 12:41:16;;;;;;;1.43;1.33;;;14.70;99.90;;;;;;5004748;28;20459;-71
2023/03/23 12:43:44;;;;;;;1.23;1.13;;;14.70;99.90;;;;;;5001464;28;20544;-70
2023/03/23 12:46:24;;;;;;;1.87;1.77;;;14.80;99.90;;;;;;5023263;28;20846;-70
2023/03/23 12:49:00;;;;;;;1.30;1.20;;;14.80;99.90;;;;;;5018056;28;20502;-70
2023/03/23 12:51:32;;;;;;;8.70;1.60;;;14.80;99.90;;;;;;5023877;28;20471;-70
2023/03/23 12:54:21;;;;;;;1.50;1.40;;;14.80;99.90;;;;;;5020193;28;20456;-70
2023/03/23 12:57:05;;;;;;;3.57;1.83;;;14.80;99.90;;;;;;5014108;28;20487;-70
2023/03/23 12:59:59;;;;;;;2.13;1.67;;;14.80;99.90;;;;;;5013959;28;20526;-71
2023/03/23 13:02:46;;;;;;;1.20;1.17;;;14.90;99.90;;;;;;5008912;28;20514;-70
2023/03/23 13:05:29;;;;;;;1.53;1.43;;;14.80;99.90;;;;;;5007616;28;21047;-71
2023/03/23 13:08:26;;;;;;;1.23;1.13;;;14.80;99.90;;;;;;5034618;28;20501;-70
2023/03/23 13:10:55;;;;;;;1.53;1.33;;;14.80;99.90;;;;;;5033315;28;20490;-69
2023/03/23 13:13:24;;;;;;;1.63;1.50;;;14.80;99.90;;;;;;5006010;28;20487;-70
2023/03/23 13:15:58;;;;;;;1.60;1.50;;;14.80;99.90;;;;;;5038485;28;20478;-70
2023/03/23 13:18:56;;;;;;;3.80;1.50;;;14.80;99.90;;;;;;5011815;28;20451;-70
2023/03/23 13:21:32;;;;;;;2.30;1.47;;;14.70;99.90;;;;;;5020043;28;20455;-70
2023/03/23 13:24:08;;;;;;;1.60;1.50;;;14.70;99.90;;;;;;5033501;28;20469;-70
2023/03/23 13:26:48;;;;;;;1.63;1.53;;;14.70;99.90;;;;;;5030641;28;20473;-70